sensor_id;sensor_type;location;lat;lon;timestamp;P1;durP1;ratioP1;P2;durP2;ratioP2
4074;SDS011;2052;53.522;9.806;2022-11-20T00:01:27;13.27;;;6.13;;
4074;SDS011;2052;53.522;9.806;2022-11-20T00:03:56;10.60;;;6.50;;
4074;SDS011;2052;53.522;9.806;2022-11-20T00:06:24;10.10;;;6.43;;
4074;SDS011;2052;53.522;9.806;2022-11-20T00:08:53;9.40;;;6.60;;
4074;SDS011;2052;53.522;9.806;2022-11-20T00:11:21;12.80;;;7.50;;
4074;SDS011;2052;53.522;9.806;2022-11-20T00:13:49;11.97;;;7.47;;
4074;SDS011;2052;53.522;9.806;2022-11-20T00:16:17;10.93;;;6.90;;
4074;SDS011;2052;53.522;9.806;2022-11-20T00:18:45;10.30;;;6.57;;
4074;SDS011;2052;53.522;9.806;2022-11-20T00:21:15;9.77;;;5.73;;
4074;SDS011;2052;53.522;9.806;2022-11-20T00:23:43;11.50;;;5.47;;
4074;SDS011;2052;53.522;9.806;2022-11-20T00:26:11;9.40;;;5.60;;
4074;SDS011;2052;53.522;9.806;2022-11-20T00:28:38;9.57;;;5.90;;
4074;SDS011;2052;53.522;9.806;2022-11-20T00:31:05;9.27;;;6.10;;
4074;SDS011;2052;53.522;9.806;2022-11-20T00:33:33;9.77;;;6.20;;
4074;SDS011;2052;53.522;9.806;2022-11-20T00:36:00;10.20;;;6.07;;
4074;SDS011;2052;53.522;9.806;2022-11-20T00:38:28;12.23;;;6.97;;
4074;SDS011;2052;53.522;9.806;2022-11-20T00:40:56;10.70;;;6.97;;
4074;SDS011;2052;53.522;9.806;2022-11-20T00:43:23;12.40;;;6.77;;
4074;SDS011;2052;53.522;9.806;2022-11-20T00:45:50;7.43;;;5.10;;
4074;SDS011;2052;53.522;9.806;2022-11-20T00:48:16;8.30;;;6.47;;
4074;SDS011;2052;53.522;9.806;2022-11-20T00:50:43;10.30;;;6.67;;
4074;SDS011;2052;53.522;9.806;2022-11-20T00:53:10;11.10;;;6.13;;
4074;SDS011;2052;53.522;9.806;2022-11-20T00:55:38;10.10;;;6.77;;
4074;SDS011;2052;53.522;9.806;2022-11-20T00:58:04;9.13;;;7.47;;
4074;SDS011;2052;53.522;9.806;2022-11-20T01:00:31;12.53;;;7.63;;
4074;SDS011;2052;53.522;9.806;2022-11-20T01:02:58;9.33;;;5.77;;
4074;SDS011;2052;53.522;9.806;2022-11-20T01:05:24;13.80;;;6.20;;
4074;SDS011;2052;53.522;9.806;2022-11-20T01:07:51;8.57;;;5.67;;
4074;SDS011;2052;53.522;9.806;2022-11-20T01:10:18;8.93;;;6.80;;
4074;SDS011;2052;53.522;9.806;2022-11-20T01:12:46;7.53;;;5.17;;
4074;SDS011;2052;53.522;9.806;2022-11-20T01:15:33;12.00;;;6.90;;
4074;SDS011;2052;53.522;9.806;2022-11-20T01:18:01;8.70;;;5.77;;
4074;SDS011;2052;53.522;9.806;2022-11-20T01:20:28;9.30;;;5.47;;
4074;SDS011;2052;53.522;9.806;2022-11-20T01:22:55;10.53;;;5.83;;
4074;SDS011;2052;53.522;9.806;2022-11-20T01:25:21;9.33;;;6.63;;
4074;SDS011;2052;53.522;9.806;2022-11-20T01:27:49;9.80;;;7.07;;
4074;SDS011;2052;53.522;9.806;2022-11-20T01:30:16;8.73;;;6.80;;
4074;SDS011;2052;53.522;9.806;2022-11-20T01:32:43;10.20;;;5.80;;
4074;SDS011;2052;53.522;9.806;2022-11-20T01:35:09;9.03;;;6.33;;
4074;SDS011;2052;53.522;9.806;2022-11-20T01:37:36;9.10;;;5.93;;
4074;SDS011;2052;53.522;9.806;2022-11-20T01:40:03;11.90;;;7.17;;
4074;SDS011;2052;53.522;9.806;2022-11-20T01:42:30;10.77;;;6.00;;
4074;SDS011;2052;53.522;9.806;2022-11-20T01:48:20;12.07;;;6.43;;
4074;SDS011;2052;53.522;9.806;2022-11-20T01:50:49;9.67;;;6.37;;
4074;SDS011;2052;53.522;9.806;2022-11-20T01:53:16;10.90;;;6.40;;
4074;SDS011;2052;53.522;9.806;2022-11-20T01:55:45;11.27;;;7.00;;
4074;SDS011;2052;53.522;9.806;2022-11-20T01:58:15;10.00;;;6.87;;
4074;SDS011;2052;53.522;9.806;2022-11-20T02:00:42;13.07;;;6.70;;
4074;SDS011;2052;53.522;9.806;2022-11-20T02:03:09;9.40;;;6.53;;
4074;SDS011;2052;53.522;9.806;2022-11-20T02:05:41;12.60;;;7.43;;
4074;SDS011;2052;53.522;9.806;2022-11-20T02:08:11;9.73;;;5.90;;
4074;SDS011;2052;53.522;9.806;2022-11-20T02:10:38;8.73;;;6.03;;
4074;SDS011;2052;53.522;9.806;2022-11-20T02:13:05;10.30;;;6.30;;
4074;SDS011;2052;53.522;9.806;2022-11-20T02:15:50;10.90;;;7.37;;
4074;SDS011;2052;53.522;9.806;2022-11-20T02:18:17;15.33;;;6.33;;
4074;SDS011;2052;53.522;9.806;2022-11-20T02:20:46;8.90;;;6.43;;
4074;SDS011;2052;53.522;9.806;2022-11-20T02:23:16;13.03;;;6.77;;
4074;SDS011;2052;53.522;9.806;2022-11-20T02:25:48;13.13;;;6.83;;
4074;SDS011;2052;53.522;9.806;2022-11-20T02:28:16;10.87;;;6.90;;
4074;SDS011;2052;53.522;9.806;2022-11-20T02:30:43;9.90;;;6.40;;
4074;SDS011;2052;53.522;9.806;2022-11-20T02:33:10;13.10;;;6.10;;
4074;SDS011;2052;53.522;9.806;2022-11-20T02:35:39;13.47;;;6.57;;
4074;SDS011;2052;53.522;9.806;2022-11-20T02:38:07;11.90;;;6.53;;
4074;SDS011;2052;53.522;9.806;2022-11-20T02:40:34;9.60;;;6.20;;
4074;SDS011;2052;53.522;9.806;2022-11-20T02:43:02;10.37;;;6.00;;
4074;SDS011;2052;53.522;9.806;2022-11-20T02:45:29;9.07;;;6.10;;
4074;SDS011;2052;53.522;9.806;2022-11-20T02:47:56;12.90;;;6.17;;
4074;SDS011;2052;53.522;9.806;2022-11-20T02:50:22;9.37;;;6.40;;
4074;SDS011;2052;53.522;9.806;2022-11-20T02:52:49;9.67;;;6.13;;
4074;SDS011;2052;53.522;9.806;2022-11-20T02:55:15;12.17;;;5.87;;
4074;SDS011;2052;53.522;9.806;2022-11-20T02:57:42;11.73;;;5.90;;
4074;SDS011;2052;53.522;9.806;2022-11-20T03:00:11;9.67;;;5.90;;
4074;SDS011;2052;53.522;9.806;2022-11-20T03:02:39;10.57;;;7.10;;
4074;SDS011;2052;53.522;9.806;2022-11-20T03:05:05;10.70;;;5.97;;
4074;SDS011;2052;53.522;9.806;2022-11-20T03:07:32;9.60;;;5.70;;
4074;SDS011;2052;53.522;9.806;2022-11-20T03:09:59;7.30;;;4.90;;
4074;SDS011;2052;53.522;9.806;2022-11-20T03:12:25;12.33;;;6.17;;
4074;SDS011;2052;53.522;9.806;2022-11-20T03:14:52;14.60;;;6.43;;
4074;SDS011;2052;53.522;9.806;2022-11-20T03:17:20;8.43;;;5.97;;
4074;SDS011;2052;53.522;9.806;2022-11-20T03:19:47;8.13;;;5.40;;
4074;SDS011;2052;53.522;9.806;2022-11-20T03:22:13;7.77;;;5.87;;
4074;SDS011;2052;53.522;9.806;2022-11-20T03:24:40;11.37;;;6.07;;
4074;SDS011;2052;53.522;9.806;2022-11-20T03:27:07;8.33;;;5.87;;
4074;SDS011;2052;53.522;9.806;2022-11-20T03:29:34;9.90;;;6.70;;
4074;SDS011;2052;53.522;9.806;2022-11-20T03:32:01;22.40;;;5.90;;
4074;SDS011;2052;53.522;9.806;2022-11-20T03:34:29;9.03;;;6.00;;
4074;SDS011;2052;53.522;9.806;2022-11-20T03:36:56;10.93;;;5.77;;
4074;SDS011;2052;53.522;9.806;2022-11-20T03:39:22;8.20;;;5.87;;
4074;SDS011;2052;53.522;9.806;2022-11-20T03:41:49;10.37;;;5.60;;
4074;SDS011;2052;53.522;9.806;2022-11-20T03:44:16;9.77;;;6.00;;
4074;SDS011;2052;53.522;9.806;2022-11-20T03:46:42;8.83;;;5.83;;
4074;SDS011;2052;53.522;9.806;2022-11-20T03:49:09;8.63;;;6.40;;
4074;SDS011;2052;53.522;9.806;2022-11-20T03:51:37;8.87;;;5.90;;
4074;SDS011;2052;53.522;9.806;2022-11-20T03:54:04;7.73;;;5.50;;
4074;SDS011;2052;53.522;9.806;2022-11-20T03:56:32;8.83;;;5.70;;
4074;SDS011;2052;53.522;9.806;2022-11-20T03:59:01;12.37;;;5.60;;
4074;SDS011;2052;53.522;9.806;2022-11-20T04:01:29;8.63;;;5.70;;
4074;SDS011;2052;53.522;9.806;2022-11-20T04:03:58;14.17;;;6.10;;
4074;SDS011;2052;53.522;9.806;2022-11-20T04:06:26;9.70;;;5.23;;
4074;SDS011;2052;53.522;9.806;2022-11-20T04:08:55;15.70;;;6.20;;
4074;SDS011;2052;53.522;9.806;2022-11-20T04:11:23;10.77;;;6.10;;
4074;SDS011;2052;53.522;9.806;2022-11-20T04:13:53;11.57;;;5.93;;
4074;SDS011;2052;53.522;9.806;2022-11-20T04:16:20;8.03;;;5.63;;
4074;SDS011;2052;53.522;9.806;2022-11-20T04:18:51;10.47;;;6.23;;
4074;SDS011;2052;53.522;9.806;2022-11-20T04:21:18;13.23;;;6.50;;
4074;SDS011;2052;53.522;9.806;2022-11-20T04:23:45;9.33;;;5.27;;
4074;SDS011;2052;53.522;9.806;2022-11-20T04:26:13;10.00;;;6.63;;
4074;SDS011;2052;53.522;9.806;2022-11-20T04:28:40;9.30;;;6.20;;
4074;SDS011;2052;53.522;9.806;2022-11-20T04:31:07;9.40;;;6.00;;
4074;SDS011;2052;53.522;9.806;2022-11-20T04:33:35;12.40;;;8.33;;
4074;SDS011;2052;53.522;9.806;2022-11-20T04:36:02;9.20;;;5.87;;
4074;SDS011;2052;53.522;9.806;2022-11-20T04:38:29;8.67;;;6.50;;
4074;SDS011;2052;53.522;9.806;2022-11-20T04:40:57;8.40;;;5.60;;
4074;SDS011;2052;53.522;9.806;2022-11-20T04:43:26;9.13;;;6.40;;
4074;SDS011;2052;53.522;9.806;2022-11-20T04:45:53;6.57;;;5.20;;
4074;SDS011;2052;53.522;9.806;2022-11-20T04:48:20;9.77;;;6.87;;
4074;SDS011;2052;53.522;9.806;2022-11-20T04:50:46;7.60;;;5.93;;
4074;SDS011;2052;53.522;9.806;2022-11-20T04:53:13;12.50;;;6.27;;
4074;SDS011;2052;53.522;9.806;2022-11-20T04:55:40;12.20;;;6.60;;
4074;SDS011;2052;53.522;9.806;2022-11-20T04:58:07;9.73;;;6.97;;
4074;SDS011;2052;53.522;9.806;2022-11-20T05:00:35;9.93;;;6.50;;
4074;SDS011;2052;53.522;9.806;2022-11-20T05:03:01;11.10;;;6.83;;
4074;SDS011;2052;53.522;9.806;2022-11-20T05:05:28;10.00;;;6.80;;
4074;SDS011;2052;53.522;9.806;2022-11-20T05:07:55;10.20;;;7.20;;
4074;SDS011;2052;53.522;9.806;2022-11-20T05:10:22;12.20;;;6.93;;
4074;SDS011;2052;53.522;9.806;2022-11-20T05:12:49;15.27;;;7.50;;
4074;SDS011;2052;53.522;9.806;2022-11-20T05:15:15;12.80;;;6.57;;
4074;SDS011;2052;53.522;9.806;2022-11-20T05:17:47;10.07;;;6.83;;
4074;SDS011;2052;53.522;9.806;2022-11-20T05:20:14;14.90;;;7.20;;
4074;SDS011;2052;53.522;9.806;2022-11-20T05:22:41;11.93;;;6.53;;
4074;SDS011;2052;53.522;9.806;2022-11-20T05:25:07;13.77;;;7.20;;
4074;SDS011;2052;53.522;9.806;2022-11-20T05:27:34;17.47;;;7.37;;
4074;SDS011;2052;53.522;9.806;2022-11-20T05:30:01;11.97;;;7.00;;
4074;SDS011;2052;53.522;9.806;2022-11-20T05:32:28;8.67;;;6.43;;
4074;SDS011;2052;53.522;9.806;2022-11-20T05:34:56;10.90;;;6.53;;
4074;SDS011;2052;53.522;9.806;2022-11-20T05:37:23;12.23;;;7.70;;
4074;SDS011;2052;53.522;9.806;2022-11-20T05:39:49;13.90;;;7.40;;
4074;SDS011;2052;53.522;9.806;2022-11-20T05:42:16;13.10;;;7.53;;
4074;SDS011;2052;53.522;9.806;2022-11-20T05:44:57;11.23;;;6.80;;
4074;SDS011;2052;53.522;9.806;2022-11-20T05:47:24;14.80;;;7.30;;
4074;SDS011;2052;53.522;9.806;2022-11-20T05:49:52;12.40;;;6.50;;
4074;SDS011;2052;53.522;9.806;2022-11-20T05:52:21;13.10;;;6.67;;
4074;SDS011;2052;53.522;9.806;2022-11-20T05:54:47;10.63;;;7.03;;
4074;SDS011;2052;53.522;9.806;2022-11-20T05:57:14;8.37;;;5.93;;
4074;SDS011;2052;53.522;9.806;2022-11-20T05:59:41;15.40;;;7.40;;
4074;SDS011;2052;53.522;9.806;2022-11-20T06:02:07;11.07;;;6.73;;
4074;SDS011;2052;53.522;9.806;2022-11-20T06:04:34;16.33;;;8.40;;
4074;SDS011;2052;53.522;9.806;2022-11-20T06:07:01;9.60;;;6.90;;
4074;SDS011;2052;53.522;9.806;2022-11-20T06:09:29;12.00;;;7.33;;
4074;SDS011;2052;53.522;9.806;2022-11-20T06:11:55;15.33;;;8.50;;
4074;SDS011;2052;53.522;9.806;2022-11-20T06:14:22;15.07;;;9.40;;
4074;SDS011;2052;53.522;9.806;2022-11-20T06:16:49;16.67;;;8.33;;
4074;SDS011;2052;53.522;9.806;2022-11-20T06:19:15;13.07;;;7.60;;
4074;SDS011;2052;53.522;9.806;2022-11-20T06:21:42;10.63;;;7.60;;
4074;SDS011;2052;53.522;9.806;2022-11-20T06:24:09;14.20;;;7.07;;
4074;SDS011;2052;53.522;9.806;2022-11-20T06:26:37;13.13;;;7.40;;
4074;SDS011;2052;53.522;9.806;2022-11-20T06:29:04;13.73;;;8.07;;
4074;SDS011;2052;53.522;9.806;2022-11-20T06:31:31;16.00;;;9.07;;
4074;SDS011;2052;53.522;9.806;2022-11-20T06:34:00;14.70;;;8.50;;
4074;SDS011;2052;53.522;9.806;2022-11-20T06:36:26;13.60;;;8.23;;
4074;SDS011;2052;53.522;9.806;2022-11-20T06:38:53;13.07;;;8.43;;
4074;SDS011;2052;53.522;9.806;2022-11-20T06:41:20;15.67;;;8.63;;
4074;SDS011;2052;53.522;9.806;2022-11-20T06:43:49;15.20;;;9.00;;
4074;SDS011;2052;53.522;9.806;2022-11-20T06:46:17;21.80;;;9.13;;
4074;SDS011;2052;53.522;9.806;2022-11-20T06:48:44;13.57;;;7.57;;
4074;SDS011;2052;53.522;9.806;2022-11-20T06:51:11;15.80;;;7.57;;
4074;SDS011;2052;53.522;9.806;2022-11-20T06:53:38;12.57;;;8.47;;
4074;SDS011;2052;53.522;9.806;2022-11-20T06:56:05;15.40;;;8.10;;
4074;SDS011;2052;53.522;9.806;2022-11-20T06:58:33;15.10;;;9.57;;
4074;SDS011;2052;53.522;9.806;2022-11-20T07:01:02;13.10;;;7.73;;
4074;SDS011;2052;53.522;9.806;2022-11-20T07:03:30;11.97;;;7.77;;
4074;SDS011;2052;53.522;9.806;2022-11-20T07:05:58;13.50;;;8.50;;
4074;SDS011;2052;53.522;9.806;2022-11-20T07:08:24;15.80;;;8.63;;
4074;SDS011;2052;53.522;9.806;2022-11-20T07:10:51;15.30;;;8.43;;
4074;SDS011;2052;53.522;9.806;2022-11-20T07:13:18;15.77;;;8.63;;
4074;SDS011;2052;53.522;9.806;2022-11-20T07:15:45;16.80;;;8.17;;
4074;SDS011;2052;53.522;9.806;2022-11-20T07:18:13;16.40;;;8.50;;
4074;SDS011;2052;53.522;9.806;2022-11-20T07:20:40;14.73;;;8.80;;
4074;SDS011;2052;53.522;9.806;2022-11-20T07:23:06;14.60;;;8.90;;
4074;SDS011;2052;53.522;9.806;2022-11-20T07:25:33;14.03;;;8.20;;
4074;SDS011;2052;53.522;9.806;2022-11-20T07:28:00;13.50;;;8.03;;
4074;SDS011;2052;53.522;9.806;2022-11-20T07:30:26;12.67;;;7.63;;
4074;SDS011;2052;53.522;9.806;2022-11-20T07:32:54;13.03;;;8.50;;
4074;SDS011;2052;53.522;9.806;2022-11-20T07:35:23;11.10;;;7.33;;
4074;SDS011;2052;53.522;9.806;2022-11-20T07:37:50;11.90;;;8.00;;
4074;SDS011;2052;53.522;9.806;2022-11-20T07:40:17;15.50;;;8.70;;
4074;SDS011;2052;53.522;9.806;2022-11-20T07:42:47;12.60;;;7.30;;
4074;SDS011;2052;53.522;9.806;2022-11-20T07:45:15;17.37;;;9.60;;
4074;SDS011;2052;53.522;9.806;2022-11-20T07:47:41;14.97;;;8.53;;
4074;SDS011;2052;53.522;9.806;2022-11-20T07:50:08;12.60;;;8.23;;
4074;SDS011;2052;53.522;9.806;2022-11-20T07:52:37;14.10;;;8.07;;
4074;SDS011;2052;53.522;9.806;2022-11-20T07:55:04;16.80;;;8.90;;
4074;SDS011;2052;53.522;9.806;2022-11-20T07:57:31;14.53;;;8.47;;
4074;SDS011;2052;53.522;9.806;2022-11-20T07:59:57;14.97;;;9.87;;
4074;SDS011;2052;53.522;9.806;2022-11-20T08:02:24;23.37;;;12.47;;
4074;SDS011;2052;53.522;9.806;2022-11-20T08:04:51;17.67;;;9.80;;
4074;SDS011;2052;53.522;9.806;2022-11-20T08:07:17;14.67;;;7.97;;
4074;SDS011;2052;53.522;9.806;2022-11-20T08:09:45;16.60;;;9.47;;
4074;SDS011;2052;53.522;9.806;2022-11-20T08:12:15;10.33;;;8.10;;
4074;SDS011;2052;53.522;9.806;2022-11-20T08:15:01;11.03;;;6.90;;
4074;SDS011;2052;53.522;9.806;2022-11-20T08:17:28;10.27;;;7.07;;
4074;SDS011;2052;53.522;9.806;2022-11-20T08:19:54;14.50;;;7.13;;
4074;SDS011;2052;53.522;9.806;2022-11-20T08:22:21;12.27;;;8.10;;
4074;SDS011;2052;53.522;9.806;2022-11-20T08:24:49;13.10;;;7.10;;
4074;SDS011;2052;53.522;9.806;2022-11-20T08:27:16;12.30;;;7.57;;
4074;SDS011;2052;53.522;9.806;2022-11-20T08:29:42;12.27;;;6.70;;
4074;SDS011;2052;53.522;9.806;2022-11-20T08:32:09;11.10;;;7.20;;
4074;SDS011;2052;53.522;9.806;2022-11-20T08:34:36;11.50;;;6.50;;
4074;SDS011;2052;53.522;9.806;2022-11-20T08:37:02;7.57;;;5.80;;
4074;SDS011;2052;53.522;9.806;2022-11-20T08:39:29;13.27;;;5.60;;
4074;SDS011;2052;53.522;9.806;2022-11-20T08:41:57;8.17;;;5.40;;
4074;SDS011;2052;53.522;9.806;2022-11-20T08:44:24;10.70;;;5.50;;
4074;SDS011;2052;53.522;9.806;2022-11-20T08:46:51;8.73;;;4.93;;
4074;SDS011;2052;53.522;9.806;2022-11-20T08:49:17;8.30;;;5.53;;
4074;SDS011;2052;53.522;9.806;2022-11-20T08:51:44;7.90;;;5.70;;
4074;SDS011;2052;53.522;9.806;2022-11-20T08:54:12;11.10;;;6.00;;
4074;SDS011;2052;53.522;9.806;2022-11-20T08:56:40;6.57;;;4.80;;
4074;SDS011;2052;53.522;9.806;2022-11-20T08:59:08;7.20;;;5.40;;
4074;SDS011;2052;53.522;9.806;2022-11-20T09:01:34;8.70;;;5.23;;
4074;SDS011;2052;53.522;9.806;2022-11-20T09:04:01;24.20;;;6.37;;
4074;SDS011;2052;53.522;9.806;2022-11-20T09:06:29;9.93;;;5.70;;
4074;SDS011;2052;53.522;9.806;2022-11-20T09:08:56;8.77;;;5.70;;
4074;SDS011;2052;53.522;9.806;2022-11-20T09:11:23;11.97;;;5.90;;
4074;SDS011;2052;53.522;9.806;2022-11-20T09:13:50;8.83;;;5.00;;
4074;SDS011;2052;53.522;9.806;2022-11-20T09:16:18;10.50;;;6.80;;
4074;SDS011;2052;53.522;9.806;2022-11-20T09:18:45;8.30;;;5.90;;
4074;SDS011;2052;53.522;9.806;2022-11-20T09:21:12;9.40;;;5.47;;
4074;SDS011;2052;53.522;9.806;2022-11-20T09:23:39;9.70;;;6.30;;
4074;SDS011;2052;53.522;9.806;2022-11-20T09:26:07;7.90;;;4.97;;
4074;SDS011;2052;53.522;9.806;2022-11-20T09:28:36;7.97;;;4.77;;
4074;SDS011;2052;53.522;9.806;2022-11-20T09:31:04;7.30;;;5.13;;
4074;SDS011;2052;53.522;9.806;2022-11-20T09:33:32;8.63;;;5.83;;
4074;SDS011;2052;53.522;9.806;2022-11-20T09:35:59;8.30;;;5.10;;
4074;SDS011;2052;53.522;9.806;2022-11-20T09:38:26;7.93;;;5.13;;
4074;SDS011;2052;53.522;9.806;2022-11-20T09:40:55;8.17;;;4.33;;
4074;SDS011;2052;53.522;9.806;2022-11-20T09:43:26;6.00;;;4.07;;
4074;SDS011;2052;53.522;9.806;2022-11-20T09:46:01;6.50;;;4.37;;
4074;SDS011;2052;53.522;9.806;2022-11-20T09:48:36;5.30;;;3.60;;
4074;SDS011;2052;53.522;9.806;2022-11-20T09:51:15;5.43;;;3.50;;
4074;SDS011;2052;53.522;9.806;2022-11-20T09:53:51;4.50;;;3.40;;
4074;SDS011;2052;53.522;9.806;2022-11-20T09:56:25;4.70;;;3.47;;
4074;SDS011;2052;53.522;9.806;2022-11-20T09:58:52;10.23;;;5.60;;
4074;SDS011;2052;53.522;9.806;2022-11-20T10:01:22;4.97;;;3.53;;
4074;SDS011;2052;53.522;9.806;2022-11-20T10:03:55;6.70;;;3.30;;
4074;SDS011;2052;53.522;9.806;2022-11-20T10:06:28;4.53;;;3.30;;
4074;SDS011;2052;53.522;9.806;2022-11-20T10:08:59;4.63;;;3.43;;
4074;SDS011;2052;53.522;9.806;2022-11-20T10:11:35;6.10;;;4.30;;
4074;SDS011;2052;53.522;9.806;2022-11-20T10:14:12;6.60;;;3.53;;
4074;SDS011;2052;53.522;9.806;2022-11-20T10:16:46;4.40;;;3.43;;
4074;SDS011;2052;53.522;9.806;2022-11-20T10:19:37;3.83;;;3.00;;
4074;SDS011;2052;53.522;9.806;2022-11-20T10:22:14;5.20;;;3.50;;
4074;SDS011;2052;53.522;9.806;2022-11-20T10:24:52;4.27;;;3.33;;
4074;SDS011;2052;53.522;9.806;2022-11-20T10:27:32;4.53;;;3.60;;
4074;SDS011;2052;53.522;9.806;2022-11-20T10:30:08;5.13;;;3.23;;
4074;SDS011;2052;53.522;9.806;2022-11-20T10:32:36;4.40;;;3.60;;
4074;SDS011;2052;53.522;9.806;2022-11-20T10:35:06;5.70;;;3.70;;
4074;SDS011;2052;53.522;9.806;2022-11-20T10:37:42;5.63;;;4.00;;
4074;SDS011;2052;53.522;9.806;2022-11-20T10:40:17;4.43;;;3.80;;
4074;SDS011;2052;53.522;9.806;2022-11-20T10:42:47;5.90;;;4.00;;
4074;SDS011;2052;53.522;9.806;2022-11-20T10:45:18;6.20;;;3.67;;
4074;SDS011;2052;53.522;9.806;2022-11-20T10:47:48;6.03;;;3.47;;
4074;SDS011;2052;53.522;9.806;2022-11-20T10:50:18;8.83;;;3.90;;
4074;SDS011;2052;53.522;9.806;2022-11-20T10:52:48;5.10;;;4.17;;
4074;SDS011;2052;53.522;9.806;2022-11-20T10:55:24;6.10;;;3.90;;
4074;SDS011;2052;53.522;9.806;2022-11-20T10:58:00;6.33;;;3.37;;
4074;SDS011;2052;53.522;9.806;2022-11-20T11:00:32;4.57;;;3.07;;
4074;SDS011;2052;53.522;9.806;2022-11-20T11:02:59;4.30;;;3.10;;
4074;SDS011;2052;53.522;9.806;2022-11-20T11:05:39;9.70;;;3.27;;
4074;SDS011;2052;53.522;9.806;2022-11-20T11:08:10;3.40;;;2.80;;
4074;SDS011;2052;53.522;9.806;2022-11-20T11:10:39;3.33;;;2.73;;
4074;SDS011;2052;53.522;9.806;2022-11-20T11:13:18;4.20;;;2.93;;
4074;SDS011;2052;53.522;9.806;2022-11-20T11:15:46;3.13;;;2.83;;
4074;SDS011;2052;53.522;9.806;2022-11-20T11:18:22;4.50;;;3.23;;
4074;SDS011;2052;53.522;9.806;2022-11-20T11:20:51;4.70;;;3.40;;
4074;SDS011;2052;53.522;9.806;2022-11-20T11:23:28;3.70;;;3.30;;
4074;SDS011;2052;53.522;9.806;2022-11-20T11:25:57;5.13;;;3.40;;
4074;SDS011;2052;53.522;9.806;2022-11-20T11:28:25;4.67;;;3.57;;
4074;SDS011;2052;53.522;9.806;2022-11-20T11:30:53;5.23;;;3.77;;
4074;SDS011;2052;53.522;9.806;2022-11-20T11:33:21;8.70;;;4.43;;
4074;SDS011;2052;53.522;9.806;2022-11-20T11:35:51;6.50;;;2.90;;
4074;SDS011;2052;53.522;9.806;2022-11-20T11:38:22;5.63;;;4.30;;
4074;SDS011;2052;53.522;9.806;2022-11-20T11:40:55;4.20;;;3.80;;
4074;SDS011;2052;53.522;9.806;2022-11-20T11:43:23;8.97;;;5.10;;
4074;SDS011;2052;53.522;9.806;2022-11-20T11:46:19;5.60;;;4.83;;
4074;SDS011;2052;53.522;9.806;2022-11-20T11:48:54;4.00;;;3.57;;
4074;SDS011;2052;53.522;9.806;2022-11-20T11:51:23;4.40;;;3.90;;
4074;SDS011;2052;53.522;9.806;2022-11-20T11:53:54;5.00;;;4.20;;
4074;SDS011;2052;53.522;9.806;2022-11-20T11:56:21;3.90;;;3.40;;
4074;SDS011;2052;53.522;9.806;2022-11-20T11:58:48;5.67;;;3.90;;
4074;SDS011;2052;53.522;9.806;2022-11-20T12:01:20;3.47;;;3.17;;
4074;SDS011;2052;53.522;9.806;2022-11-20T12:03:53;7.00;;;4.10;;
4074;SDS011;2052;53.522;9.806;2022-11-20T12:06:25;7.20;;;4.27;;
4074;SDS011;2052;53.522;9.806;2022-11-20T12:08:55;4.73;;;4.13;;
4074;SDS011;2052;53.522;9.806;2022-11-20T12:11:26;5.50;;;4.13;;
4074;SDS011;2052;53.522;9.806;2022-11-20T12:13:57;4.87;;;3.63;;
4074;SDS011;2052;53.522;9.806;2022-11-20T12:16:28;4.00;;;3.60;;
4074;SDS011;2052;53.522;9.806;2022-11-20T12:18:57;4.70;;;3.47;;
4074;SDS011;2052;53.522;9.806;2022-11-20T12:21:28;4.27;;;3.27;;
4074;SDS011;2052;53.522;9.806;2022-11-20T12:24:02;4.13;;;3.20;;
4074;SDS011;2052;53.522;9.806;2022-11-20T12:26:41;4.43;;;3.10;;
4074;SDS011;2052;53.522;9.806;2022-11-20T12:29:15;4.63;;;3.40;;
4074;SDS011;2052;53.522;9.806;2022-11-20T12:31:52;3.00;;;2.33;;
4074;SDS011;2052;53.522;9.806;2022-11-20T12:34:31;4.60;;;3.13;;
4074;SDS011;2052;53.522;9.806;2022-11-20T12:37:18;3.30;;;2.90;;
4074;SDS011;2052;53.522;9.806;2022-11-20T12:39:56;3.57;;;2.83;;
4074;SDS011;2052;53.522;9.806;2022-11-20T12:42:31;3.57;;;3.20;;
4074;SDS011;2052;53.522;9.806;2022-11-20T12:45:25;5.00;;;3.60;;
4074;SDS011;2052;53.522;9.806;2022-11-20T12:48:03;3.23;;;2.90;;
4074;SDS011;2052;53.522;9.806;2022-11-20T12:50:41;4.27;;;3.30;;
4074;SDS011;2052;53.522;9.806;2022-11-20T12:53:21;4.57;;;3.83;;
4074;SDS011;2052;53.522;9.806;2022-11-20T12:55:54;8.13;;;3.33;;
4074;SDS011;2052;53.522;9.806;2022-11-20T12:58:24;3.03;;;2.47;;
4074;SDS011;2052;53.522;9.806;2022-11-20T13:00:55;3.67;;;3.20;;
4074;SDS011;2052;53.522;9.806;2022-11-20T13:03:29;4.73;;;3.30;;
4074;SDS011;2052;53.522;9.806;2022-11-20T13:06:03;4.67;;;3.00;;
4074;SDS011;2052;53.522;9.806;2022-11-20T13:08:37;7.63;;;3.50;;
4074;SDS011;2052;53.522;9.806;2022-11-20T13:11:07;4.47;;;3.40;;
4074;SDS011;2052;53.522;9.806;2022-11-20T13:13:42;6.73;;;3.77;;
4074;SDS011;2052;53.522;9.806;2022-11-20T13:16:13;4.40;;;2.97;;
4074;SDS011;2052;53.522;9.806;2022-11-20T13:18:43;5.60;;;3.97;;
4074;SDS011;2052;53.522;9.806;2022-11-20T13:21:14;4.23;;;3.00;;
4074;SDS011;2052;53.522;9.806;2022-11-20T13:23:43;5.00;;;4.07;;
4074;SDS011;2052;53.522;9.806;2022-11-20T13:26:17;3.33;;;3.03;;
4074;SDS011;2052;53.522;9.806;2022-11-20T13:28:46;3.23;;;2.87;;
4074;SDS011;2052;53.522;9.806;2022-11-20T13:31:23;4.07;;;2.93;;
4074;SDS011;2052;53.522;9.806;2022-11-20T13:33:55;4.77;;;4.00;;
4074;SDS011;2052;53.522;9.806;2022-11-20T13:36:23;8.87;;;7.23;;
4074;SDS011;2052;53.522;9.806;2022-11-20T13:38:52;4.07;;;3.67;;
4074;SDS011;2052;53.522;9.806;2022-11-20T13:41:23;3.90;;;3.23;;
4074;SDS011;2052;53.522;9.806;2022-11-20T13:44:04;3.40;;;3.10;;
4074;SDS011;2052;53.522;9.806;2022-11-20T13:46:36;3.90;;;3.07;;
4074;SDS011;2052;53.522;9.806;2022-11-20T13:49:08;5.27;;;3.83;;
4074;SDS011;2052;53.522;9.806;2022-11-20T13:51:37;9.17;;;3.63;;
4074;SDS011;2052;53.522;9.806;2022-11-20T13:57:23;5.20;;;3.83;;
4074;SDS011;2052;53.522;9.806;2022-11-20T14:00:03;4.33;;;3.57;;
4074;SDS011;2052;53.522;9.806;2022-11-20T14:02:35;4.90;;;3.97;;
4074;SDS011;2052;53.522;9.806;2022-11-20T14:05:02;6.10;;;3.87;;
4074;SDS011;2052;53.522;9.806;2022-11-20T14:07:31;4.90;;;3.00;;
4074;SDS011;2052;53.522;9.806;2022-11-20T14:10:00;3.80;;;3.07;;
4074;SDS011;2052;53.522;9.806;2022-11-20T14:12:28;5.63;;;3.90;;
4074;SDS011;2052;53.522;9.806;2022-11-20T14:14:55;4.77;;;3.63;;
4074;SDS011;2052;53.522;9.806;2022-11-20T14:17:23;4.27;;;3.47;;
4074;SDS011;2052;53.522;9.806;2022-11-20T14:19:51;5.27;;;3.73;;
4074;SDS011;2052;53.522;9.806;2022-11-20T14:22:20;4.80;;;3.90;;
4074;SDS011;2052;53.522;9.806;2022-11-20T14:24:48;8.30;;;4.17;;
4074;SDS011;2052;53.522;9.806;2022-11-20T14:27:20;6.50;;;4.70;;
4074;SDS011;2052;53.522;9.806;2022-11-20T14:29:47;6.60;;;4.43;;
4074;SDS011;2052;53.522;9.806;2022-11-20T14:32:16;7.73;;;4.53;;
4074;SDS011;2052;53.522;9.806;2022-11-20T14:34:44;9.13;;;5.20;;
4074;SDS011;2052;53.522;9.806;2022-11-20T14:37:13;10.43;;;7.13;;
4074;SDS011;2052;53.522;9.806;2022-11-20T14:39:48;10.53;;;6.57;;
4074;SDS011;2052;53.522;9.806;2022-11-20T14:42:16;9.87;;;5.93;;
4074;SDS011;2052;53.522;9.806;2022-11-20T14:44:45;8.23;;;5.43;;
4074;SDS011;2052;53.522;9.806;2022-11-20T14:47:12;7.03;;;4.60;;
4074;SDS011;2052;53.522;9.806;2022-11-20T14:49:39;12.10;;;4.63;;
4074;SDS011;2052;53.522;9.806;2022-11-20T14:52:10;8.20;;;5.27;;
4074;SDS011;2052;53.522;9.806;2022-11-20T14:54:43;7.40;;;4.73;;
4074;SDS011;2052;53.522;9.806;2022-11-20T14:57:18;7.20;;;4.80;;
4074;SDS011;2052;53.522;9.806;2022-11-20T14:59:48;9.87;;;5.43;;
4074;SDS011;2052;53.522;9.806;2022-11-20T15:02:14;6.23;;;4.70;;
4074;SDS011;2052;53.522;9.806;2022-11-20T15:04:45;8.57;;;5.43;;
4074;SDS011;2052;53.522;9.806;2022-11-20T15:07:22;6.47;;;4.33;;
4074;SDS011;2052;53.522;9.806;2022-11-20T15:09:58;8.57;;;5.63;;
4074;SDS011;2052;53.522;9.806;2022-11-20T15:12:26;7.50;;;4.90;;
4074;SDS011;2052;53.522;9.806;2022-11-20T15:14:54;9.80;;;5.13;;
4074;SDS011;2052;53.522;9.806;2022-11-20T15:17:21;8.87;;;5.50;;
4074;SDS011;2052;53.522;9.806;2022-11-20T15:19:48;11.00;;;6.00;;
4074;SDS011;2052;53.522;9.806;2022-11-20T15:22:14;8.10;;;5.37;;
4074;SDS011;2052;53.522;9.806;2022-11-20T15:24:42;7.90;;;4.87;;
4074;SDS011;2052;53.522;9.806;2022-11-20T15:27:08;7.20;;;4.63;;
4074;SDS011;2052;53.522;9.806;2022-11-20T15:29:35;7.27;;;5.07;;